createdAt,value
2019-03-31T00:02:00.441Z,100295.08
2019-03-31T00:04:26.308Z,100296.59
2019-03-31T00:06:52.194Z,100290.23
2019-03-31T00:09:18.262Z,100293.61
2019-03-31T00:11:44.283Z,100296.12
2019-03-31T00:14:10.247Z,100291.42
2019-03-31T00:16:36.163Z,100290.50
2019-03-31T00:19:02.109Z,100286.11
2019-03-31T00:21:28.100Z,100287.22
2019-03-31T00:23:53.912Z,100280.48
2019-03-31T00:26:19.854Z,100282.79
2019-03-31T00:28:45.697Z,100278.48
2019-03-31T00:31:21.906Z,100279.80
2019-03-31T00:33:40.112Z,100279.86
2019-03-31T00:36:05.923Z,100280.72
2019-03-31T00:38:31.869Z,100283.06
2019-03-31T00:40:57.759Z,100281.58
2019-03-31T00:43:23.589Z,100282.13
2019-03-31T00:45:49.421Z,100277.42
2019-03-31T00:48:15.450Z,100278.45
2019-03-31T00:50:41.372Z,100271.39
2019-03-31T00:53:07.309Z,100281.78
2019-03-31T00:55:33.377Z,100275.55
2019-03-31T00:57:59.188Z,100279.70
2019-03-31T01:00:45.572Z,100273.59
2019-03-31T01:03:11.501Z,100269.57
2019-03-31T01:05:40.642Z,100275.60
2019-03-31T01:08:06.739Z,100271.58
2019-03-31T01:10:32.867Z,100274.72
2019-03-31T01:12:59.110Z,100269.89
2019-03-31T01:15:26.735Z,100264.12
2019-03-31T01:17:53.279Z,100261.07
2019-03-31T01:20:19.205Z,100253.61
2019-03-31T01:22:45.191Z,100259.41
2019-03-31T01:25:12.912Z,100257.30
2019-03-31T01:27:39.041Z,100258.28
2019-03-31T01:30:05.804Z,100254.66
2019-03-31T01:32:31.854Z,100254.72
2019-03-31T01:35:01.180Z,100244.02
2019-03-31T01:37:27.354Z,100243.44
2019-03-31T01:39:54.002Z,100247.92
2019-03-31T01:42:20.219Z,100243.67
2019-03-31T01:44:46.163Z,100242.46
2019-03-31T01:47:13.187Z,100236.06
2019-03-31T01:49:39.171Z,100235.66
2019-03-31T01:52:05.114Z,100237.55
2019-03-31T01:54:30.937Z,100245.64
2019-03-31T01:56:56.934Z,100236.48
2019-03-31T01:59:22.770Z,100234.38
2019-03-31T02:01:48.679Z,100234.57
2019-03-31T02:04:14.647Z,100233.71
2019-03-31T02:06:40.679Z,100227.11
2019-03-31T02:09:06.960Z,100228.03
2019-03-31T02:11:33.030Z,100225.90
2019-03-31T02:13:58.997Z,100221.02
2019-03-31T02:16:25.183Z,100224.95
2019-03-31T02:18:51.037Z,100216.63
2019-03-31T02:21:16.872Z,100219.35
2019-03-31T02:23:42.843Z,100216.66
2019-03-31T02:26:08.873Z,100210.92
2019-03-31T02:28:34.841Z,100206.91
2019-03-31T02:31:00.932Z,100198.06
2019-03-31T02:33:26.755Z,100204.75
2019-03-31T02:35:52.817Z,100199.09
2019-03-31T02:38:18.921Z,100198.25
2019-03-31T02:40:44.777Z,100195.64
2019-03-31T02:43:10.586Z,100186.80
2019-03-31T02:45:36.489Z,100182.84
2019-03-31T02:48:02.504Z,100180.33
2019-03-31T02:50:38.545Z,100178.74
2019-03-31T02:53:04.483Z,100175.73
2019-03-31T02:55:30.921Z,100172.77
2019-03-31T02:57:56.989Z,100169.33
2019-03-31T03:00:23.063Z,100164.91
2019-03-31T03:02:49.202Z,100170.81
2019-03-31T03:05:20.021Z,100170.81
2019-03-31T03:07:46.737Z,100161.86
2019-03-31T03:10:12.747Z,100166.25
2019-03-31T03:12:40.506Z,100157.95
2019-03-31T03:15:06.551Z,100152.39
2019-03-31T03:17:32.530Z,100146.25
2019-03-31T03:19:58.364Z,100152.09
2019-03-31T03:22:24.254Z,100143.77
2019-03-31T03:24:50.080Z,100147.73
2019-03-31T03:27:15.890Z,100148.05
2019-03-31T03:29:41.890Z,100142.36
2019-03-31T03:32:07.949Z,100141.47
2019-03-31T03:34:34.116Z,100138.41
2019-03-31T03:37:00.086Z,100136.33
2019-03-31T03:39:25.928Z,100129.76
2019-03-31T03:41:51.759Z,100127.84
2019-03-31T03:44:17.614Z,100120.95
2019-03-31T03:46:43.465Z,100116.17
2019-03-31T03:49:09.529Z,100115.44
2019-03-31T03:51:35.815Z,100111.86
2019-03-31T03:54:01.663Z,100114.45
2019-03-31T03:56:29.264Z,100107.47
2019-03-31T03:58:55.372Z,100101.36
2019-03-31T04:01:22.277Z,100096.97
2019-03-31T04:03:48.068Z,100101.48
2019-03-31T04:06:14.124Z,100105.58
2019-03-31T04:08:40.093Z,100108.25
2019-03-31T04:11:12.151Z,100109.72
2019-03-31T04:13:37.990Z,100105.92
2019-03-31T04:16:03.935Z,100107.41
2019-03-31T04:18:29.784Z,100102.49
2019-03-31T04:20:55.655Z,100098.92
2019-03-31T04:23:21.490Z,100107.23
2019-03-31T04:25:47.323Z,100105.39
2019-03-31T04:28:13.310Z,100106.91
2019-03-31T04:30:39.145Z,100104.30
2019-03-31T04:33:05.134Z,100109.04
2019-03-31T04:35:30.970Z,100114.19
2019-03-31T04:37:56.893Z,100101.44
2019-03-31T04:40:22.807Z,100115.13
2019-03-31T04:42:48.634Z,100110.18
2019-03-31T04:45:14.579Z,100114.69
2019-03-31T04:47:40.534Z,100110.69
2019-03-31T04:50:06.972Z,100110.80
2019-03-31T04:52:32.893Z,100110.36
2019-03-31T04:54:58.817Z,100112.63
2019-03-31T04:57:24.657Z,100107.06
2019-03-31T04:59:50.547Z,100116.24
2019-03-31T05:02:16.390Z,100115.07
2019-03-31T05:04:42.298Z,100113.32
2019-03-31T05:07:08.191Z,100113.75
2019-03-31T05:09:34.031Z,100109.82
2019-03-31T05:12:00.013Z,100111.86
2019-03-31T05:14:25.888Z,100115.02
2019-03-31T05:16:51.733Z,100110.99
2019-03-31T05:19:17.686Z,100121.77
2019-03-31T05:21:43.656Z,100117.73
2019-03-31T05:24:09.487Z,100111.70
2019-03-31T05:26:35.342Z,100107.23
2019-03-31T05:29:01.208Z,100113.50
2019-03-31T05:31:27.148Z,100119.06
2019-03-31T05:33:53.002Z,100113.70
2019-03-31T05:36:18.863Z,100113.38
2019-03-31T05:38:44.680Z,100110.84
2019-03-31T05:41:10.674Z,100112.11
2019-03-31T05:43:36.599Z,100111.22
2019-03-31T05:46:02.651Z,100111.80
2019-03-31T05:48:28.515Z,100110.03
2019-03-31T05:50:54.349Z,100111.73
2019-03-31T05:53:20.187Z,100118.45
2019-03-31T05:55:46.190Z,100120.53
2019-03-31T05:58:12.009Z,100121.76
2019-03-31T06:00:39.915Z,100122.92
2019-03-31T06:03:05.890Z,100121.73
2019-03-31T06:05:31.827Z,100121.20
2019-03-31T06:07:57.713Z,100127.98
2019-03-31T06:10:23.654Z,100125.10
2019-03-31T06:12:49.724Z,100125.48
2019-03-31T06:15:15.660Z,100103.75
2019-03-31T06:17:41.497Z,100126.08
2019-03-31T06:20:07.436Z,100127.70
2019-03-31T06:22:33.305Z,100121.39
2019-03-31T06:24:59.157Z,100126.16
2019-03-31T06:27:24.992Z,100129.54
2019-03-31T06:29:51.046Z,100122.94
2019-03-31T06:32:17.023Z,100123.73
2019-03-31T06:34:47.645Z,100127.00
2019-03-31T06:37:10.631Z,100126.31
2019-03-31T06:39:36.476Z,100126.19
2019-03-31T06:42:02.588Z,100129.47
2019-03-31T06:44:28.438Z,100129.64
2019-03-31T06:46:54.277Z,100129.44
2019-03-31T06:49:20.249Z,100129.34
2019-03-31T06:51:46.103Z,100126.43
2019-03-31T06:54:12.119Z,100130.38
2019-03-31T06:56:38.033Z,100137.25
2019-03-31T06:59:03.873Z,100135.18
2019-03-31T07:01:29.701Z,100124.55
2019-03-31T07:03:55.579Z,100110.12
2019-03-31T07:06:21.511Z,100120.77
2019-03-31T07:08:47.481Z,100110.28
2019-03-31T07:11:13.430Z,100110.05
2019-03-31T07:13:39.313Z,100106.77
2019-03-31T07:16:05.220Z,100113.53
2019-03-31T07:18:31.174Z,100111.48
2019-03-31T07:20:57.008Z,100115.26
2019-03-31T07:23:22.855Z,100109.39
2019-03-31T07:25:48.704Z,100118.90
2019-03-31T07:28:14.649Z,100117.83
2019-03-31T07:30:40.411Z,100109.77
2019-03-31T07:33:06.310Z,100111.77
2019-03-31T07:35:32.221Z,100108.98
2019-03-31T07:37:58.049Z,100111.10
2019-03-31T07:40:24.306Z,100121.33
2019-03-31T07:42:51.324Z,100113.52
2019-03-31T07:45:17.675Z,100115.55
2019-03-31T07:47:43.961Z,100103.77
2019-03-31T07:50:12.463Z,100107.16
2019-03-31T07:52:38.481Z,100105.37
2019-03-31T07:55:05.193Z,100101.57
2019-03-31T07:57:31.231Z,100105.23
2019-03-31T07:59:57.112Z,100109.80
2019-03-31T08:02:22.961Z,100110.10
2019-03-31T08:04:48.796Z,100109.72
2019-03-31T08:07:14.725Z,100109.31
2019-03-31T08:09:40.606Z,100107.45
2019-03-31T08:12:06.661Z,100104.14
2019-03-31T08:14:32.493Z,100109.19
2019-03-31T08:16:58.481Z,100104.31
2019-03-31T08:19:24.298Z,100101.80
2019-03-31T08:21:50.136Z,100100.28
2019-03-31T08:24:16.200Z,100093.98
2019-03-31T08:26:42.045Z,100092.23
2019-03-31T08:29:07.897Z,100093.24
2019-03-31T08:31:33.729Z,100091.59
2019-03-31T08:33:59.584Z,100093.44
2019-03-31T08:36:25.438Z,100092.59
2019-03-31T08:38:51.278Z,100096.38
2019-03-31T08:41:17.148Z,100094.87
2019-03-31T08:43:42.957Z,100090.67
2019-03-31T08:46:08.785Z,100086.14
2019-03-31T08:48:34.666Z,100084.98
2019-03-31T08:51:00.510Z,100083.39
2019-03-31T08:53:30.587Z,100083.34
2019-03-31T08:55:56.468Z,100083.42
2019-03-31T08:58:22.399Z,100080.83
2019-03-31T09:00:50.266Z,100079.09
2019-03-31T09:03:16.186Z,100085.88
2019-03-31T09:05:42.168Z,100079.64
2019-03-31T09:08:07.987Z,100076.34
2019-03-31T09:10:33.843Z,100076.67
2019-03-31T09:12:59.731Z,100075.97
2019-03-31T09:15:25.582Z,100072.34
2019-03-31T09:17:54.032Z,100077.48
2019-03-31T09:20:19.347Z,100073.48
2019-03-31T09:22:45.171Z,100076.64
2019-03-31T09:25:11.396Z,100071.88
2019-03-31T09:27:37.406Z,100066.22
2019-03-31T09:30:06.847Z,100073.34
2019-03-31T09:32:32.773Z,100070.41
2019-03-31T09:34:58.766Z,100064.47
2019-03-31T09:37:24.592Z,100068.61
2019-03-31T09:39:50.413Z,100067.41
2019-03-31T09:42:16.307Z,100069.98
2019-03-31T09:44:42.341Z,100073.42
2019-03-31T09:47:08.270Z,100069.50
2019-03-31T09:49:34.156Z,100065.74
2019-03-31T09:52:00.088Z,100068.17
2019-03-31T09:54:29.396Z,100066.66
2019-03-31T09:56:55.216Z,100061.95
2019-03-31T09:59:21.259Z,100063.38
2019-03-31T10:01:47.252Z,100057.17
2019-03-31T10:04:13.172Z,100062.36
2019-03-31T10:06:39.101Z,100056.73
2019-03-31T10:09:05.296Z,100050.20
2019-03-31T10:11:31.239Z,100051.30
2019-03-31T10:13:57.068Z,100045.38
2019-03-31T10:16:23.165Z,100046.46
2019-03-31T10:18:48.992Z,100048.86
2019-03-31T10:21:14.865Z,100038.02
2019-03-31T10:23:40.701Z,100039.28
2019-03-31T10:26:06.635Z,100027.98
2019-03-31T10:28:32.619Z,100027.89
2019-03-31T10:30:58.484Z,100025.22
2019-03-31T10:33:24.289Z,100030.64
2019-03-31T10:35:50.183Z,100021.19
2019-03-31T10:38:16.102Z,99993.98
2019-03-31T10:40:42.062Z,100006.92
2019-03-31T10:43:08.117Z,100002.22
2019-03-31T10:45:34.161Z,100006.25
2019-03-31T10:47:59.983Z,99997.48
2019-03-31T10:50:26.029Z,100004.84
2019-03-31T10:52:51.875Z,99997.08
2019-03-31T10:55:17.867Z,100001.69
2019-03-31T10:57:43.810Z,99998.45
2019-03-31T11:00:10.338Z,99999.63
2019-03-31T11:02:36.343Z,99992.53
2019-03-31T11:05:04.553Z,99991.72
2019-03-31T11:07:30.491Z,99987.83
2019-03-31T11:09:56.402Z,99985.80
2019-03-31T11:12:22.223Z,99985.81
2019-03-31T11:14:48.253Z,99983.47
2019-03-31T11:17:14.228Z,99982.69
2019-03-31T11:19:40.169Z,99976.36
2019-03-31T11:22:20.191Z,99968.09
2019-03-31T11:24:46.266Z,99973.25
2019-03-31T11:27:12.115Z,99971.70
2019-03-31T11:29:38.062Z,99978.97
2019-03-31T11:32:03.914Z,99972.04
2019-03-31T11:34:29.902Z,99968.42
2019-03-31T11:36:55.826Z,99972.80
2019-03-31T11:39:21.968Z,99971.40
2019-03-31T11:41:47.796Z,99964.41
2019-03-31T11:44:13.773Z,99967.36
2019-03-31T11:46:39.699Z,99969.64
2019-03-31T11:49:05.739Z,99965.16
2019-03-31T11:51:31.607Z,99972.49
2019-03-31T11:53:57.461Z,99962.48
2019-03-31T11:56:23.332Z,99954.34
2019-03-31T11:58:49.219Z,99950.15
2019-03-31T12:01:15.359Z,99947.53
2019-03-31T12:03:41.412Z,99948.86
2019-03-31T12:06:11.050Z,99942.34
2019-03-31T12:08:35.456Z,99937.51
2019-03-31T12:11:01.312Z,99929.14
2019-03-31T12:13:27.202Z,99930.27
2019-03-31T12:15:53.028Z,99923.69
2019-03-31T12:18:18.900Z,99926.16
2019-03-31T12:20:44.826Z,99916.29
2019-03-31T12:23:10.658Z,99921.11
2019-03-31T12:25:36.604Z,99919.76
2019-03-31T12:28:02.665Z,99918.74
2019-03-31T12:30:28.846Z,99920.47
2019-03-31T12:32:56.296Z,99910.45
2019-03-31T12:35:22.245Z,99904.02
2019-03-31T12:37:48.301Z,99904.89
2019-03-31T12:40:17.933Z,99912.79
2019-03-31T12:42:43.899Z,99899.59
2019-03-31T12:45:10.055Z,99899.02
2019-03-31T12:47:35.864Z,99891.12
2019-03-31T12:50:03.352Z,99886.48
2019-03-31T12:52:29.358Z,99889.55
2019-03-31T12:54:55.183Z,99886.13
2019-03-31T12:57:21.078Z,99874.81
2019-03-31T12:59:46.893Z,99873.17
2019-03-31T13:02:12.728Z,99872.13
2019-03-31T13:04:38.713Z,99868.84
2019-03-31T13:07:04.651Z,99867.13
2019-03-31T13:09:30.576Z,99851.48
2019-03-31T13:11:56.551Z,99855.08
2019-03-31T13:14:22.501Z,99858.78
2019-03-31T13:16:48.339Z,99843.36
2019-03-31T13:19:14.306Z,99841.52
2019-03-31T13:21:40.124Z,99843.00
2019-03-31T13:24:06.177Z,99830.52
2019-03-31T13:26:32.227Z,99834.45
2019-03-31T13:28:58.059Z,99835.70
2019-03-31T13:31:23.888Z,99825.84
2019-03-31T13:33:49.771Z,99832.27
2019-03-31T13:36:15.796Z,99816.00
2019-03-31T13:38:41.612Z,99823.73
2019-03-31T13:41:07.721Z,99813.95
2019-03-31T13:43:33.596Z,99811.13
2019-03-31T13:46:00.314Z,99805.41
2019-03-31T13:48:26.335Z,99805.02
2019-03-31T13:50:52.152Z,99799.36
2019-03-31T13:53:18.007Z,99798.30
2019-03-31T13:55:43.868Z,99799.08
2019-03-31T13:58:10.839Z,99785.55
2019-03-31T14:00:40.674Z,99782.29
2019-03-31T14:03:07.163Z,99782.22
2019-03-31T14:05:33.195Z,99782.55
2019-03-31T14:07:59.126Z,99783.52
2019-03-31T14:10:24.950Z,99774.56
2019-03-31T14:12:50.796Z,99776.58
2019-03-31T14:15:19.383Z,99780.17
2019-03-31T14:17:44.460Z,99774.88
2019-03-31T14:20:10.496Z,99763.69
2019-03-31T14:22:36.372Z,99758.97
2019-03-31T14:25:04.002Z,99762.88
2019-03-31T14:27:29.828Z,99763.71
2019-03-31T14:29:55.725Z,99749.28
2019-03-31T14:32:21.586Z,99743.58
2019-03-31T14:34:47.481Z,99748.32
2019-03-31T14:37:13.466Z,99746.88
2019-03-31T14:39:39.297Z,99742.31
2019-03-31T14:42:05.327Z,99745.06
2019-03-31T14:44:31.329Z,99736.77
2019-03-31T14:46:57.269Z,99735.32
2019-03-31T14:49:25.702Z,99739.84
2019-03-31T14:51:50.914Z,99731.39
2019-03-31T14:54:16.835Z,99738.83
2019-03-31T14:56:42.766Z,99734.87
2019-03-31T14:59:08.884Z,99731.23
2019-03-31T15:01:34.705Z,99724.15
2019-03-31T15:04:00.514Z,99737.84
2019-03-31T15:06:26.527Z,99730.28
2019-03-31T15:08:54.486Z,99737.39
2019-03-31T15:11:21.997Z,99728.99
2019-03-31T15:13:48.321Z,99732.05
2019-03-31T15:16:14.174Z,99728.20
2019-03-31T15:18:40.006Z,99730.72
2019-03-31T15:21:05.907Z,99727.96
2019-03-31T15:23:31.757Z,99715.48
2019-03-31T15:25:57.598Z,99721.73
2019-03-31T15:28:23.443Z,99724.63
2019-03-31T15:30:49.283Z,99714.59
2019-03-31T15:33:15.552Z,99721.19
2019-03-31T15:35:41.402Z,99725.59
2019-03-31T15:38:07.234Z,99719.59
2019-03-31T15:40:33.181Z,99726.68
2019-03-31T15:42:59.115Z,99717.95
2019-03-31T15:45:25.004Z,99719.73
2019-03-31T15:47:50.886Z,99722.27
2019-03-31T15:50:17.139Z,99726.55
2019-03-31T15:52:43.123Z,99726.09
2019-03-31T15:55:09.660Z,99722.00
2019-03-31T15:57:35.499Z,99738.17
2019-03-31T16:00:01.738Z,99731.44
2019-03-31T16:02:29.539Z,99672.70
2019-03-31T16:04:55.388Z,99685.25
2019-03-31T16:07:21.337Z,99686.55
2019-03-31T16:09:47.367Z,99691.48
2019-03-31T16:12:13.243Z,99682.58
2019-03-31T16:14:39.071Z,99682.41
2019-03-31T16:17:05.025Z,99685.67
2019-03-31T16:19:30.982Z,99677.66
2019-03-31T16:21:56.850Z,99676.34
2019-03-31T16:24:24.602Z,99674.23
2019-03-31T16:26:52.970Z,99704.77
2019-03-31T16:29:18.248Z,99707.53
2019-03-31T16:31:44.125Z,99701.57
2019-03-31T16:34:10.006Z,99706.16
2019-03-31T16:36:35.873Z,99698.44
2019-03-31T16:39:01.694Z,99692.73
2019-03-31T16:41:27.563Z,99679.55
2019-03-31T16:43:53.496Z,99670.34
2019-03-31T16:46:19.391Z,99681.17
2019-03-31T16:48:45.260Z,99676.08
2019-03-31T16:51:11.087Z,99679.13
2019-03-31T16:53:36.998Z,99686.80
2019-03-31T16:56:03.094Z,99690.48
2019-03-31T16:58:28.937Z,99687.34
2019-03-31T17:00:54.895Z,99685.75
2019-03-31T17:03:20.767Z,99686.55
2019-03-31T17:05:46.634Z,99686.48
2019-03-31T17:08:12.530Z,99689.81
2019-03-31T17:10:38.570Z,99686.58
2019-03-31T17:13:04.560Z,99689.63
2019-03-31T17:15:30.407Z,99690.44
2019-03-31T17:17:56.245Z,99690.69
2019-03-31T17:20:22.203Z,99693.45
2019-03-31T17:22:48.083Z,99688.28
2019-03-31T17:25:13.986Z,99688.58
2019-03-31T17:27:39.837Z,99691.77
2019-03-31T17:30:07.191Z,99692.58
2019-03-31T17:32:33.102Z,99696.87
2019-03-31T17:34:59.051Z,99692.69
2019-03-31T17:37:24.859Z,99699.59
2019-03-31T17:40:05.143Z,99699.22
2019-03-31T17:42:18.885Z,99700.86
2019-03-31T17:44:44.847Z,99698.35
2019-03-31T17:47:10.740Z,99705.91
2019-03-31T17:49:36.617Z,99706.58
2019-03-31T17:52:02.602Z,99707.69
2019-03-31T17:54:28.522Z,99708.91
2019-03-31T17:56:54.350Z,99706.67
2019-03-31T17:59:20.222Z,99705.05
2019-03-31T18:01:46.289Z,99706.28
2019-03-31T18:04:12.210Z,99711.48
2019-03-31T18:06:38.038Z,99696.42
2019-03-31T18:09:06.908Z,99697.44
2019-03-31T18:11:32.756Z,99701.43
2019-03-31T18:13:58.651Z,99703.14
2019-03-31T18:16:24.647Z,99706.75
2019-03-31T18:18:50.801Z,99709.06
2019-03-31T18:21:16.783Z,99713.80
2019-03-31T18:23:42.663Z,99713.03
2019-03-31T18:26:08.687Z,99717.63
2019-03-31T18:28:34.534Z,99729.08
2019-03-31T18:31:00.505Z,99732.79
2019-03-31T18:33:26.433Z,99737.64
2019-03-31T18:35:52.577Z,99738.50
2019-03-31T18:38:18.930Z,99751.02
2019-03-31T18:40:48.128Z,99746.69
2019-03-31T18:43:13.952Z,99747.13
2019-03-31T18:45:39.843Z,99747.11
2019-03-31T18:48:05.912Z,99750.48
2019-03-31T18:50:31.973Z,99751.66
2019-03-31T18:53:01.958Z,99749.95
2019-03-31T18:55:41.592Z,99750.08
2019-03-31T18:58:27.743Z,99759.84
2019-03-31T19:00:58.413Z,99765.70
2019-03-31T19:03:34.937Z,99768.75
2019-03-31T19:06:05.724Z,99763.55
2019-03-31T19:08:51.748Z,99781.13
2019-03-31T19:11:25.383Z,99771.34
2019-03-31T19:14:09.748Z,99766.73
2019-03-31T19:16:55.681Z,99769.77
2019-03-31T19:19:29.255Z,99769.55
2019-03-31T19:22:12.116Z,99779.52
2019-03-31T19:24:46.286Z,99782.83
2019-03-31T19:27:22.890Z,99776.36
2019-03-31T19:29:53.497Z,99780.03
2019-03-31T19:32:27.042Z,99778.95
2019-03-31T19:34:54.925Z,99785.48
2019-03-31T19:37:34.673Z,99780.45
2019-03-31T19:40:19.306Z,99781.98
2019-03-31T19:42:47.145Z,99778.89
2019-03-31T19:45:23.956Z,99776.38
2019-03-31T19:47:51.924Z,99783.38
2019-03-31T19:50:31.836Z,99785.82
2019-03-31T19:53:16.315Z,99782.31
2019-03-31T19:55:49.961Z,99779.38
2019-03-31T19:58:17.702Z,99780.56
2019-03-31T20:00:45.728Z,99783.48
2019-03-31T20:03:22.812Z,99777.45
2019-03-31T20:05:59.922Z,99783.89
2019-03-31T20:08:44.504Z,99780.48
2019-03-31T20:11:18.051Z,99784.58
2019-03-31T20:14:11.090Z,99781.34
2019-03-31T20:16:45.211Z,99787.05
2019-03-31T20:19:15.771Z,99787.67
2019-03-31T20:21:52.549Z,99792.92
2019-03-31T20:24:29.302Z,99788.77
2019-03-31T20:26:57.308Z,99793.77
2019-03-31T20:29:35.802Z,99794.47
2019-03-31T20:32:19.230Z,99797.66
2019-03-31T20:34:53.187Z,99794.28
2019-03-31T20:37:26.093Z,99798.64
2019-03-31T20:39:56.915Z,99795.92
2019-03-31T20:42:39.131Z,99796.77
2019-03-31T20:45:06.339Z,99799.45
2019-03-31T20:47:34.307Z,99803.14
2019-03-31T20:50:00.440Z,99799.08
2019-03-31T20:52:26.659Z,99796.48
2019-03-31T20:54:52.844Z,99797.47
2019-03-31T20:57:18.940Z,99801.74
2019-03-31T20:59:45.220Z,99798.91
2019-03-31T21:02:13.137Z,99799.52
2019-03-31T21:04:39.350Z,99803.87
2019-03-31T21:07:05.296Z,99803.64
2019-03-31T21:09:44.204Z,99805.20
2019-03-31T21:11:59.188Z,99802.84
2019-03-31T21:14:25.020Z,99801.97
2019-03-31T21:16:50.970Z,99800.33
2019-03-31T21:19:19.134Z,99805.74
2019-03-31T21:21:44.758Z,99801.63
2019-03-31T21:24:10.683Z,99805.48
2019-03-31T21:26:36.527Z,99808.23
2019-03-31T21:29:02.339Z,99803.37
2019-03-31T21:31:28.431Z,99796.84
2019-03-31T21:33:54.513Z,99800.83
2019-03-31T21:36:20.355Z,99797.10
2019-03-31T21:38:46.504Z,99799.09
2019-03-31T21:41:14.126Z,99787.67
2019-03-31T21:43:40.315Z,99803.36
2019-03-31T21:46:06.335Z,99794.31
2019-03-31T21:48:34.069Z,99790.20
2019-03-31T21:50:59.929Z,99796.59
2019-03-31T21:53:28.859Z,99793.94
2019-03-31T21:55:54.723Z,99790.41
2019-03-31T21:58:20.591Z,99784.78
2019-03-31T22:00:51.300Z,99794.27
2019-03-31T22:03:19.611Z,99787.44
2019-03-31T22:05:45.718Z,99790.83
2019-03-31T22:08:11.539Z,99789.95
2019-03-31T22:10:37.376Z,99801.09
2019-03-31T22:13:03.249Z,99794.05
2019-03-31T22:15:29.073Z,99788.75
2019-03-31T22:17:55.036Z,99790.02
2019-03-31T22:20:21.616Z,99793.20
2019-03-31T22:22:47.452Z,99805.35
2019-03-31T22:25:13.459Z,99791.55
2019-03-31T22:27:39.446Z,99791.55
2019-03-31T22:30:05.730Z,99800.05
2019-03-31T22:32:31.640Z,99794.53
2019-03-31T22:34:57.818Z,99804.88
2019-03-31T22:37:29.818Z,99799.37
2019-03-31T22:39:59.104Z,99815.41
2019-03-31T22:42:25.028Z,99818.06
2019-03-31T22:44:50.859Z,99817.91
2019-03-31T22:47:20.020Z,99815.04
2019-03-31T22:49:48.869Z,99819.82
2019-03-31T22:52:14.751Z,99829.81
2019-03-31T22:54:43.486Z,99814.20
2019-03-31T22:57:09.303Z,99827.10
2019-03-31T22:59:35.279Z,99819.34
2019-03-31T23:02:01.519Z,99819.72
2019-03-31T23:04:27.352Z,99829.81
2019-03-31T23:06:54.455Z,99823.76
2019-03-31T23:09:20.305Z,99822.32
2019-03-31T23:11:46.246Z,99825.80
2019-03-31T23:14:12.193Z,99819.56
2019-03-31T23:16:38.335Z,99822.79
2019-03-31T23:19:04.341Z,99820.91
2019-03-31T23:21:30.165Z,99822.88
2019-03-31T23:23:56.005Z,99816.73
2019-03-31T23:26:21.961Z,99817.25
2019-03-31T23:28:47.786Z,99822.25
2019-03-31T23:31:15.197Z,99818.51
2019-03-31T23:33:41.186Z,99830.05
2019-03-31T23:36:07.122Z,99820.06
2019-03-31T23:38:32.965Z,99826.83
2019-03-31T23:40:58.945Z,99816.22
2019-03-31T23:43:24.849Z,99818.51
2019-03-31T23:45:50.791Z,99819.89
2019-03-31T23:48:16.636Z,99820.46
2019-03-31T23:50:42.558Z,99814.83
2019-03-31T23:53:08.380Z,99818.00
2019-03-31T23:55:34.214Z,99823.82
2019-03-31T23:58:00.272Z,99820.65
